createdAt,value
2022-12-18T15:05:05.168Z,81.38
2022-12-18T15:08:33.170Z,79.17
2022-12-18T15:11:47.458Z,79.07
2022-12-18T15:14:51.150Z,79.57
2022-12-18T15:18:07.657Z,79.32
2022-12-18T15:21:18.457Z,79.46
2022-12-18T15:24:29.286Z,78.60
2022-12-18T15:27:36.635Z,78.84
2022-12-18T15:30:40.531Z,79.16
2022-12-18T15:33:47.109Z,79.13
2022-12-18T15:36:53.990Z,79.44
2022-12-18T15:39:57.826Z,78.24
2022-12-18T15:43:18.783Z,78.85
2022-12-18T15:46:25.611Z,78.32
2022-12-18T15:49:29.517Z,79.39
2022-12-18T15:52:43.330Z,78.83
2022-12-18T15:56:04.954Z,78.86
2022-12-18T15:59:13.086Z,77.82
2022-12-18T16:02:20.079Z,77.38
2022-12-18T16:05:25.076Z,79.43
2022-12-18T16:08:30.855Z,77.73
2022-12-18T16:11:43.003Z,77.29
2022-12-18T16:14:48.370Z,77.15
2022-12-18T16:17:53.600Z,77.35
2022-12-18T16:20:57.495Z,77.04
2022-12-18T16:24:02.777Z,77.40
2022-12-18T16:27:06.569Z,76.30
2022-12-18T16:30:15.279Z,76.69
2022-12-18T16:33:19.083Z,75.89
2022-12-18T16:36:22.995Z,75.36
2022-12-18T16:39:28.816Z,75.55
2022-12-18T16:42:32.661Z,74.65
2022-12-18T16:45:36.495Z,75.42
2022-12-18T16:48:40.232Z,76.02
2022-12-18T16:51:48.166Z,75.25
2022-12-18T16:54:53.355Z,75.87
2022-12-18T16:57:57.107Z,75.73
2022-12-18T17:01:01.028Z,74.83
2022-12-18T17:04:07.793Z,75.22
2022-12-18T17:07:11.984Z,75.49
2022-12-18T17:10:17.295Z,75.04
2022-12-18T17:13:28.207Z,76.08
2022-12-18T17:16:32.012Z,74.71
2022-12-18T17:19:36.791Z,75.63
2022-12-18T17:22:40.600Z,76.25
2022-12-18T17:25:46.503Z,76.07
2022-12-18T17:28:50.239Z,76.03
2022-12-18T17:31:53.969Z,75.60
2022-12-18T17:35:02.606Z,74.89
2022-12-18T17:38:09.480Z,75.05
2022-12-18T17:41:15.356Z,74.73
2022-12-18T17:44:19.852Z,75.47
2022-12-18T17:47:23.655Z,74.21
2022-12-18T17:50:27.815Z,74.61
2022-12-18T17:53:31.717Z,74.22
2022-12-18T17:56:36.959Z,72.89
2022-12-18T17:59:41.488Z,72.63
2022-12-18T18:02:45.370Z,73.56
2022-12-18T18:05:49.257Z,74.23
2022-12-18T18:08:54.566Z,74.57
2022-12-18T18:12:17.636Z,74.06
2022-12-18T18:15:21.523Z,74.07
2022-12-18T18:18:25.485Z,74.10
2022-12-18T18:21:30.060Z,74.29
2022-12-18T18:24:35.102Z,74.03
2022-12-18T18:27:40.538Z,74.27
2022-12-18T18:30:44.382Z,73.24
2022-12-18T18:33:48.398Z,73.27
2022-12-18T18:36:52.505Z,74.02
2022-12-18T18:39:56.918Z,73.96
2022-12-18T18:43:02.283Z,73.99
2022-12-18T18:46:08.092Z,73.90
2022-12-18T18:49:11.956Z,73.63
2022-12-18T18:52:16.651Z,74.23
2022-12-18T18:55:25.536Z,73.98
2022-12-18T18:58:31.510Z,73.75
2022-12-18T19:01:35.359Z,73.36
2022-12-18T19:04:45.731Z,73.18
2022-12-18T19:07:49.619Z,73.18
2022-12-18T19:10:57.655Z,73.21
2022-12-18T19:14:04.518Z,71.96
2022-12-18T19:17:09.346Z,72.94
2022-12-18T19:20:13.405Z,74.05
2022-12-18T19:23:17.211Z,73.65
2022-12-18T19:26:28.008Z,73.24
2022-12-18T19:29:34.487Z,73.61
2022-12-18T19:32:40.590Z,72.47
2022-12-18T19:35:44.334Z,72.71
2022-12-18T19:38:49.012Z,72.66
2022-12-18T19:41:52.957Z,73.68
2022-12-18T19:44:59.466Z,72.97
2022-12-18T19:48:04.548Z,73.01
2022-12-18T19:51:10.283Z,72.70
2022-12-18T19:54:16.993Z,73.17
2022-12-18T19:57:21.532Z,73.62
2022-12-18T20:00:26.599Z,73.82
2022-12-18T20:03:32.753Z,73.34
2022-12-18T20:06:46.536Z,73.43
2022-12-18T20:09:57.125Z,73.94
2022-12-18T20:13:06.371Z,73.83
2022-12-18T20:16:12.406Z,74.24
2022-12-18T20:19:16.291Z,74.01
2022-12-18T20:22:20.088Z,75.00
2022-12-18T20:25:23.776Z,74.38
2022-12-18T20:28:27.595Z,74.07
2022-12-18T20:31:32.866Z,73.74
2022-12-18T20:34:36.802Z,72.98
2022-12-18T20:37:43.825Z,74.09
2022-12-18T20:40:52.524Z,72.91
2022-12-18T20:43:56.223Z,73.43
2022-12-18T20:47:04.942Z,73.13
2022-12-18T20:50:12.608Z,72.54
2022-12-18T20:53:16.319Z,72.77
2022-12-18T20:56:23.076Z,74.20
2022-12-18T20:59:27.083Z,73.69
2022-12-18T21:02:32.362Z,73.24
2022-12-18T21:05:36.303Z,72.56
2022-12-18T21:08:41.505Z,74.38
2022-12-18T21:12:02.762Z,75.10
2022-12-18T21:15:09.454Z,74.76
2022-12-18T21:18:14.585Z,74.72
2022-12-18T21:21:21.903Z,74.51
2022-12-18T21:24:32.608Z,74.40
2022-12-18T21:27:36.760Z,74.91
2022-12-18T21:30:40.965Z,74.79
2022-12-18T21:33:46.118Z,74.43
2022-12-18T21:36:51.941Z,74.22
2022-12-18T21:39:55.690Z,74.01
